sensor_id;sensor_type;location;lat;lon;timestamp;P1;durP1;ratioP1;P2;durP2;ratioP2
13704;SDS011;6924;52.122;9.952;2023-05-02T00:00:46;4.23;;;3.83;;
13704;SDS011;6924;52.122;9.952;2023-05-02T00:03:13;4.43;;;4.03;;
13704;SDS011;6924;52.122;9.952;2023-05-02T00:05:40;4.37;;;3.97;;
13704;SDS011;6924;52.122;9.952;2023-05-02T00:08:07;4.23;;;3.83;;
13704;SDS011;6924;52.122;9.952;2023-05-02T00:10:33;4.63;;;3.93;;
13704;SDS011;6924;52.122;9.952;2023-05-02T00:13:00;9.10;;;4.10;;
13704;SDS011;6924;52.122;9.952;2023-05-02T00:15:27;4.07;;;3.23;;
13704;SDS011;6924;52.122;9.952;2023-05-02T00:17:54;5.50;;;3.73;;
13704;SDS011;6924;52.122;9.952;2023-05-02T00:20:20;4.30;;;3.97;;
13704;SDS011;6924;52.122;9.952;2023-05-02T00:22:47;3.93;;;3.60;;
13704;SDS011;6924;52.122;9.952;2023-05-02T00:25:13;5.97;;;4.43;;
13704;SDS011;6924;52.122;9.952;2023-05-02T00:27:41;4.93;;;4.33;;
13704;SDS011;6924;52.122;9.952;2023-05-02T00:30:10;5.83;;;4.57;;
13704;SDS011;6924;52.122;9.952;2023-05-02T00:32:38;4.40;;;4.00;;
13704;SDS011;6924;52.122;9.952;2023-05-02T00:35:06;6.80;;;4.27;;
13704;SDS011;6924;52.122;9.952;2023-05-02T00:37:33;4.77;;;4.37;;
13704;SDS011;6924;52.122;9.952;2023-05-02T00:39:59;4.57;;;4.17;;
13704;SDS011;6924;52.122;9.952;2023-05-02T00:42:26;4.50;;;3.83;;
13704;SDS011;6924;52.122;9.952;2023-05-02T00:44:55;4.20;;;3.87;;
13704;SDS011;6924;52.122;9.952;2023-05-02T00:47:21;5.33;;;4.40;;
13704;SDS011;6924;52.122;9.952;2023-05-02T00:49:50;4.73;;;4.23;;
13704;SDS011;6924;52.122;9.952;2023-05-02T00:52:16;4.57;;;4.17;;
13704;SDS011;6924;52.122;9.952;2023-05-02T00:54:43;6.13;;;4.60;;
13704;SDS011;6924;52.122;9.952;2023-05-02T00:57:10;6.43;;;4.20;;
13704;SDS011;6924;52.122;9.952;2023-05-02T00:59:36;4.53;;;4.13;;
13704;SDS011;6924;52.122;9.952;2023-05-02T01:02:10;4.70;;;4.30;;
13704;SDS011;6924;52.122;9.952;2023-05-02T01:04:53;6.07;;;4.10;;
13704;SDS011;6924;52.122;9.952;2023-05-02T01:07:30;4.80;;;4.40;;
13704;SDS011;6924;52.122;9.952;2023-05-02T01:10:11;4.13;;;3.73;;
13704;SDS011;6924;52.122;9.952;2023-05-02T01:12:51;4.53;;;4.03;;
13704;SDS011;6924;52.122;9.952;2023-05-02T01:15:23;4.87;;;3.90;;
13704;SDS011;6924;52.122;9.952;2023-05-02T01:17:51;4.73;;;4.20;;
13704;SDS011;6924;52.122;9.952;2023-05-02T01:20:22;4.60;;;4.20;;
13704;SDS011;6924;52.122;9.952;2023-05-02T01:22:51;5.10;;;4.60;;
13704;SDS011;6924;52.122;9.952;2023-05-02T01:25:23;5.23;;;4.70;;
13704;SDS011;6924;52.122;9.952;2023-05-02T01:27:56;5.30;;;4.67;;
13704;SDS011;6924;52.122;9.952;2023-05-02T01:30:31;6.80;;;5.20;;
13704;SDS011;6924;52.122;9.952;2023-05-02T01:33:01;4.50;;;4.13;;
13704;SDS011;6924;52.122;9.952;2023-05-02T01:35:29;5.33;;;4.83;;
13704;SDS011;6924;52.122;9.952;2023-05-02T01:37:58;5.13;;;4.47;;
13704;SDS011;6924;52.122;9.952;2023-05-02T01:40:27;4.47;;;3.97;;
13704;SDS011;6924;52.122;9.952;2023-05-02T01:42:54;4.70;;;4.20;;
13704;SDS011;6924;52.122;9.952;2023-05-02T01:45:23;4.90;;;4.03;;
13704;SDS011;6924;52.122;9.952;2023-05-02T01:47:52;4.97;;;4.53;;
13704;SDS011;6924;52.122;9.952;2023-05-02T01:50:20;5.10;;;4.20;;
13704;SDS011;6924;52.122;9.952;2023-05-02T01:52:50;11.97;;;4.10;;
13704;SDS011;6924;52.122;9.952;2023-05-02T01:55:17;4.57;;;4.20;;
13704;SDS011;6924;52.122;9.952;2023-05-02T01:57:45;7.07;;;4.93;;
13704;SDS011;6924;52.122;9.952;2023-05-02T02:00:14;4.97;;;4.47;;
13704;SDS011;6924;52.122;9.952;2023-05-02T02:02:42;6.70;;;4.80;;
13704;SDS011;6924;52.122;9.952;2023-05-02T02:05:11;5.43;;;4.87;;
13704;SDS011;6924;52.122;9.952;2023-05-02T02:07:39;5.40;;;4.90;;
13704;SDS011;6924;52.122;9.952;2023-05-02T02:10:05;9.13;;;6.23;;
13704;SDS011;6924;52.122;9.952;2023-05-02T02:12:34;6.70;;;6.07;;
13704;SDS011;6924;52.122;9.952;2023-05-02T02:15:06;7.27;;;6.57;;
13704;SDS011;6924;52.122;9.952;2023-05-02T02:17:39;7.40;;;6.80;;
13704;SDS011;6924;52.122;9.952;2023-05-02T02:20:09;7.10;;;6.50;;
13704;SDS011;6924;52.122;9.952;2023-05-02T02:22:39;10.60;;;6.83;;
13704;SDS011;6924;52.122;9.952;2023-05-02T02:25:09;6.80;;;6.30;;
13704;SDS011;6924;52.122;9.952;2023-05-02T02:27:37;7.83;;;6.87;;
13704;SDS011;6924;52.122;9.952;2023-05-02T02:30:05;7.80;;;6.33;;
13704;SDS011;6924;52.122;9.952;2023-05-02T02:32:33;6.57;;;5.43;;
13704;SDS011;6924;52.122;9.952;2023-05-02T02:34:59;6.47;;;5.93;;
13704;SDS011;6924;52.122;9.952;2023-05-02T02:37:29;6.80;;;6.20;;
13704;SDS011;6924;52.122;9.952;2023-05-02T02:39:59;6.07;;;5.57;;
13704;SDS011;6924;52.122;9.952;2023-05-02T02:42:31;7.67;;;6.63;;
13704;SDS011;6924;52.122;9.952;2023-05-02T02:45:04;7.07;;;6.47;;
13704;SDS011;6924;52.122;9.952;2023-05-02T02:47:42;5.93;;;5.40;;
13704;SDS011;6924;52.122;9.952;2023-05-02T02:50:14;7.67;;;6.10;;
13704;SDS011;6924;52.122;9.952;2023-05-02T02:52:49;8.00;;;7.30;;
13704;SDS011;6924;52.122;9.952;2023-05-02T02:55:23;8.13;;;7.33;;
13704;SDS011;6924;52.122;9.952;2023-05-02T02:58:01;10.07;;;7.70;;
13704;SDS011;6924;52.122;9.952;2023-05-02T03:00:34;9.50;;;8.23;;
13704;SDS011;6924;52.122;9.952;2023-05-02T03:03:01;10.90;;;9.80;;
13704;SDS011;6924;52.122;9.952;2023-05-02T03:05:28;10.57;;;8.80;;
13704;SDS011;6924;52.122;9.952;2023-05-02T03:07:59;9.67;;;8.77;;
13704;SDS011;6924;52.122;9.952;2023-05-02T03:10:25;10.53;;;9.53;;
13704;SDS011;6924;52.122;9.952;2023-05-02T03:12:52;10.93;;;9.83;;
13704;SDS011;6924;52.122;9.952;2023-05-02T03:15:28;11.00;;;9.97;;
13704;SDS011;6924;52.122;9.952;2023-05-02T03:18:10;10.90;;;10.00;;
13704;SDS011;6924;52.122;9.952;2023-05-02T03:20:36;12.73;;;11.40;;
13704;SDS011;6924;52.122;9.952;2023-05-02T03:23:04;15.80;;;13.00;;
13704;SDS011;6924;52.122;9.952;2023-05-02T03:25:30;13.17;;;11.97;;
13704;SDS011;6924;52.122;9.952;2023-05-02T03:27:57;14.70;;;13.40;;
13704;SDS011;6924;52.122;9.952;2023-05-02T03:30:23;13.70;;;12.40;;
13704;SDS011;6924;52.122;9.952;2023-05-02T03:32:50;14.63;;;13.23;;
13704;SDS011;6924;52.122;9.952;2023-05-02T03:35:16;18.10;;;16.37;;
13704;SDS011;6924;52.122;9.952;2023-05-02T03:37:42;17.77;;;16.07;;
13704;SDS011;6924;52.122;9.952;2023-05-02T03:40:11;19.77;;;16.27;;
13704;SDS011;6924;52.122;9.952;2023-05-02T03:42:37;18.73;;;16.00;;
13704;SDS011;6924;52.122;9.952;2023-05-02T03:45:05;18.67;;;16.40;;
13704;SDS011;6924;52.122;9.952;2023-05-02T03:47:33;19.47;;;17.43;;
13704;SDS011;6924;52.122;9.952;2023-05-02T03:49:59;17.47;;;15.80;;
13704;SDS011;6924;52.122;9.952;2023-05-02T03:52:27;18.00;;;16.10;;
13704;SDS011;6924;52.122;9.952;2023-05-02T03:54:53;17.30;;;15.47;;
13704;SDS011;6924;52.122;9.952;2023-05-02T03:57:21;19.53;;;17.07;;
13704;SDS011;6924;52.122;9.952;2023-05-02T03:59:47;17.90;;;16.00;;
13704;SDS011;6924;52.122;9.952;2023-05-02T04:02:14;18.87;;;16.80;;
13704;SDS011;6924;52.122;9.952;2023-05-02T04:04:40;17.33;;;15.53;;
13704;SDS011;6924;52.122;9.952;2023-05-02T04:07:07;16.33;;;14.80;;
13704;SDS011;6924;52.122;9.952;2023-05-02T04:09:39;17.07;;;14.37;;
13704;SDS011;6924;52.122;9.952;2023-05-02T04:12:06;15.83;;;14.33;;
13704;SDS011;6924;52.122;9.952;2023-05-02T04:14:33;16.17;;;14.63;;
13704;SDS011;6924;52.122;9.952;2023-05-02T04:17:00;17.20;;;15.60;;
13704;SDS011;6924;52.122;9.952;2023-05-02T04:19:26;18.00;;;15.57;;
13704;SDS011;6924;52.122;9.952;2023-05-02T04:21:52;18.00;;;14.83;;
13704;SDS011;6924;52.122;9.952;2023-05-02T04:24:19;15.97;;;13.60;;
13704;SDS011;6924;52.122;9.952;2023-05-02T04:26:45;15.73;;;14.13;;
13704;SDS011;6924;52.122;9.952;2023-05-02T04:29:13;15.23;;;13.67;;
13704;SDS011;6924;52.122;9.952;2023-05-02T04:31:40;14.40;;;13.00;;
13704;SDS011;6924;52.122;9.952;2023-05-02T04:34:07;14.67;;;13.17;;
13704;SDS011;6924;52.122;9.952;2023-05-02T04:36:34;14.20;;;12.80;;
13704;SDS011;6924;52.122;9.952;2023-05-02T04:39:01;15.10;;;13.70;;
13704;SDS011;6924;52.122;9.952;2023-05-02T04:41:27;15.20;;;13.43;;
13704;SDS011;6924;52.122;9.952;2023-05-02T04:43:54;21.30;;;13.67;;
13704;SDS011;6924;52.122;9.952;2023-05-02T04:46:20;14.63;;;13.13;;
13704;SDS011;6924;52.122;9.952;2023-05-02T04:48:48;14.80;;;13.03;;
13704;SDS011;6924;52.122;9.952;2023-05-02T04:51:14;12.40;;;11.10;;
13704;SDS011;6924;52.122;9.952;2023-05-02T04:53:41;14.80;;;13.37;;
13704;SDS011;6924;52.122;9.952;2023-05-02T04:56:07;13.53;;;12.23;;
13704;SDS011;6924;52.122;9.952;2023-05-02T04:58:35;14.63;;;13.13;;
13704;SDS011;6924;52.122;9.952;2023-05-02T05:01:01;16.17;;;14.60;;
13704;SDS011;6924;52.122;9.952;2023-05-02T05:03:28;15.57;;;13.87;;
13704;SDS011;6924;52.122;9.952;2023-05-02T05:05:56;15.57;;;13.73;;
13704;SDS011;6924;52.122;9.952;2023-05-02T05:08:22;14.73;;;13.20;;
13704;SDS011;6924;52.122;9.952;2023-05-02T05:10:48;14.87;;;13.23;;
13704;SDS011;6924;52.122;9.952;2023-05-02T05:13:15;14.37;;;12.87;;
13704;SDS011;6924;52.122;9.952;2023-05-02T05:15:41;15.33;;;13.87;;
13704;SDS011;6924;52.122;9.952;2023-05-02T05:18:08;14.07;;;12.77;;
13704;SDS011;6924;52.122;9.952;2023-05-02T05:20:34;14.10;;;12.67;;
13704;SDS011;6924;52.122;9.952;2023-05-02T05:23:02;16.10;;;14.47;;
13704;SDS011;6924;52.122;9.952;2023-05-02T05:25:29;18.67;;;14.07;;
13704;SDS011;6924;52.122;9.952;2023-05-02T05:27:56;15.93;;;14.43;;
13704;SDS011;6924;52.122;9.952;2023-05-02T05:30:24;19.20;;;15.33;;
13704;SDS011;6924;52.122;9.952;2023-05-02T05:32:50;16.33;;;14.43;;
13704;SDS011;6924;52.122;9.952;2023-05-02T05:35:17;16.83;;;13.77;;
13704;SDS011;6924;52.122;9.952;2023-05-02T05:37:43;20.73;;;15.20;;
13704;SDS011;6924;52.122;9.952;2023-05-02T05:40:11;16.23;;;14.40;;
13704;SDS011;6924;52.122;9.952;2023-05-02T05:42:38;16.23;;;14.23;;
13704;SDS011;6924;52.122;9.952;2023-05-02T05:45:05;16.30;;;14.37;;
13704;SDS011;6924;52.122;9.952;2023-05-02T05:47:32;17.20;;;15.37;;
13704;SDS011;6924;52.122;9.952;2023-05-02T05:49:58;19.53;;;15.20;;
13704;SDS011;6924;52.122;9.952;2023-05-02T05:52:25;21.10;;;13.97;;
13704;SDS011;6924;52.122;9.952;2023-05-02T05:54:52;16.37;;;13.73;;
13704;SDS011;6924;52.122;9.952;2023-05-02T05:57:20;12.80;;;11.23;;
13704;SDS011;6924;52.122;9.952;2023-05-02T05:59:46;13.73;;;10.03;;
13704;SDS011;6924;52.122;9.952;2023-05-02T06:02:13;13.97;;;10.50;;
13704;SDS011;6924;52.122;9.952;2023-05-02T06:04:40;13.87;;;10.67;;
13704;SDS011;6924;52.122;9.952;2023-05-02T06:07:06;13.57;;;10.53;;
13704;SDS011;6924;52.122;9.952;2023-05-02T06:09:33;12.93;;;10.37;;
13704;SDS011;6924;52.122;9.952;2023-05-02T06:12:00;12.37;;;11.07;;
13704;SDS011;6924;52.122;9.952;2023-05-02T06:14:28;12.70;;;11.10;;
13704;SDS011;6924;52.122;9.952;2023-05-02T06:16:54;12.17;;;10.97;;
13704;SDS011;6924;52.122;9.952;2023-05-02T06:19:24;8.80;;;6.93;;
13704;SDS011;6924;52.122;9.952;2023-05-02T06:21:50;4.70;;;4.30;;
13704;SDS011;6924;52.122;9.952;2023-05-02T06:24:16;8.33;;;4.90;;
13704;SDS011;6924;52.122;9.952;2023-05-02T06:26:43;5.93;;;5.33;;
13704;SDS011;6924;52.122;9.952;2023-05-02T06:29:10;5.60;;;4.67;;
13704;SDS011;6924;52.122;9.952;2023-05-02T06:31:37;3.53;;;3.23;;
13704;SDS011;6924;52.122;9.952;2023-05-02T06:34:04;4.27;;;2.60;;
13704;SDS011;6924;52.122;9.952;2023-05-02T06:36:30;5.57;;;4.13;;
13704;SDS011;6924;52.122;9.952;2023-05-02T06:38:57;2.83;;;2.57;;
13704;SDS011;6924;52.122;9.952;2023-05-02T06:41:23;2.23;;;1.87;;
13704;SDS011;6924;52.122;9.952;2023-05-02T06:43:50;3.37;;;2.27;;
13704;SDS011;6924;52.122;9.952;2023-05-02T06:46:16;4.27;;;2.37;;
13704;SDS011;6924;52.122;9.952;2023-05-02T06:48:46;3.37;;;2.53;;
13704;SDS011;6924;52.122;9.952;2023-05-02T06:51:13;5.67;;;2.63;;
13704;SDS011;6924;52.122;9.952;2023-05-02T06:53:40;8.33;;;3.07;;
13704;SDS011;6924;52.122;9.952;2023-05-02T06:56:06;6.03;;;3.30;;
13704;SDS011;6924;52.122;9.952;2023-05-02T06:58:33;3.30;;;3.00;;
13704;SDS011;6924;52.122;9.952;2023-05-02T07:00:59;3.30;;;2.83;;
13704;SDS011;6924;52.122;9.952;2023-05-02T07:03:26;6.73;;;3.77;;
13704;SDS011;6924;52.122;9.952;2023-05-02T07:05:53;4.20;;;3.60;;
13704;SDS011;6924;52.122;9.952;2023-05-02T07:08:21;7.60;;;3.33;;
13704;SDS011;6924;52.122;9.952;2023-05-02T07:10:47;7.33;;;3.97;;
13704;SDS011;6924;52.122;9.952;2023-05-02T07:13:15;9.23;;;4.47;;
13704;SDS011;6924;52.122;9.952;2023-05-02T07:15:41;4.43;;;3.70;;
13704;SDS011;6924;52.122;9.952;2023-05-02T07:18:07;9.53;;;3.90;;
13704;SDS011;6924;52.122;9.952;2023-05-02T07:20:34;9.63;;;4.33;;
13704;SDS011;6924;52.122;9.952;2023-05-02T07:23:04;6.53;;;4.93;;
13704;SDS011;6924;52.122;9.952;2023-05-02T07:25:30;6.53;;;4.40;;
13704;SDS011;6924;52.122;9.952;2023-05-02T07:27:56;5.00;;;3.47;;
13704;SDS011;6924;52.122;9.952;2023-05-02T07:30:23;7.43;;;3.20;;
13704;SDS011;6924;52.122;9.952;2023-05-02T07:32:49;7.17;;;3.47;;
13704;SDS011;6924;52.122;9.952;2023-05-02T07:35:16;9.17;;;4.33;;
13704;SDS011;6924;52.122;9.952;2023-05-02T07:37:42;11.33;;;4.70;;
13704;SDS011;6924;52.122;9.952;2023-05-02T07:40:10;8.47;;;4.50;;
13704;SDS011;6924;52.122;9.952;2023-05-02T07:42:37;5.57;;;4.00;;
13704;SDS011;6924;52.122;9.952;2023-05-02T07:45:05;9.47;;;4.50;;
13704;SDS011;6924;52.122;9.952;2023-05-02T07:47:33;8.00;;;4.63;;
13704;SDS011;6924;52.122;9.952;2023-05-02T07:49:59;8.90;;;4.33;;
13704;SDS011;6924;52.122;9.952;2023-05-02T07:52:26;10.30;;;5.37;;
13704;SDS011;6924;52.122;9.952;2023-05-02T07:54:53;11.27;;;4.63;;
13704;SDS011;6924;52.122;9.952;2023-05-02T07:57:20;9.77;;;4.80;;
13704;SDS011;6924;52.122;9.952;2023-05-02T07:59:47;5.33;;;4.23;;
13704;SDS011;6924;52.122;9.952;2023-05-02T08:02:14;6.43;;;4.80;;
13704;SDS011;6924;52.122;9.952;2023-05-02T08:04:43;11.87;;;6.03;;
13704;SDS011;6924;52.122;9.952;2023-05-02T08:07:10;7.37;;;4.27;;
13704;SDS011;6924;52.122;9.952;2023-05-02T08:09:37;11.10;;;4.60;;
13704;SDS011;6924;52.122;9.952;2023-05-02T08:12:03;16.33;;;5.80;;
13704;SDS011;6924;52.122;9.952;2023-05-02T08:14:31;10.50;;;4.03;;
13704;SDS011;6924;52.122;9.952;2023-05-02T08:16:58;7.47;;;3.77;;
13704;SDS011;6924;52.122;9.952;2023-05-02T08:19:24;10.13;;;3.30;;
13704;SDS011;6924;52.122;9.952;2023-05-02T08:21:52;6.90;;;4.03;;
13704;SDS011;6924;52.122;9.952;2023-05-02T08:24:19;11.73;;;3.43;;
13704;SDS011;6924;52.122;9.952;2023-05-02T08:26:45;8.17;;;3.77;;
13704;SDS011;6924;52.122;9.952;2023-05-02T08:29:12;7.37;;;4.37;;
13704;SDS011;6924;52.122;9.952;2023-05-02T08:31:39;11.00;;;3.97;;
13704;SDS011;6924;52.122;9.952;2023-05-02T08:34:06;9.77;;;4.87;;
13704;SDS011;6924;52.122;9.952;2023-05-02T08:36:32;5.77;;;3.50;;
13704;SDS011;6924;52.122;9.952;2023-05-02T08:38:59;8.27;;;3.67;;
13704;SDS011;6924;52.122;9.952;2023-05-02T08:41:26;5.07;;;3.77;;
13704;SDS011;6924;52.122;9.952;2023-05-02T08:43:54;12.13;;;3.80;;
13704;SDS011;6924;52.122;9.952;2023-05-02T08:46:22;8.53;;;3.67;;
13704;SDS011;6924;52.122;9.952;2023-05-02T08:48:49;12.97;;;4.23;;
13704;SDS011;6924;52.122;9.952;2023-05-02T08:51:17;12.27;;;3.30;;
13704;SDS011;6924;52.122;9.952;2023-05-02T08:53:44;7.00;;;3.27;;
13704;SDS011;6924;52.122;9.952;2023-05-02T08:56:11;9.03;;;4.77;;
13704;SDS011;6924;52.122;9.952;2023-05-02T08:58:38;5.37;;;3.37;;
13704;SDS011;6924;52.122;9.952;2023-05-02T09:01:08;8.67;;;3.77;;
13704;SDS011;6924;52.122;9.952;2023-05-02T09:03:35;10.77;;;3.43;;
13704;SDS011;6924;52.122;9.952;2023-05-02T09:06:05;7.27;;;5.43;;
13704;SDS011;6924;52.122;9.952;2023-05-02T09:08:32;8.37;;;3.80;;
13704;SDS011;6924;52.122;9.952;2023-05-02T09:11:00;9.07;;;3.27;;
13704;SDS011;6924;52.122;9.952;2023-05-02T09:13:27;10.17;;;3.77;;
13704;SDS011;6924;52.122;9.952;2023-05-02T09:15:55;8.27;;;3.17;;
13704;SDS011;6924;52.122;9.952;2023-05-02T09:18:23;8.47;;;3.57;;
13704;SDS011;6924;52.122;9.952;2023-05-02T09:20:50;7.03;;;3.77;;
13704;SDS011;6924;52.122;9.952;2023-05-02T09:23:18;10.47;;;4.67;;
13704;SDS011;6924;52.122;9.952;2023-05-02T09:25:44;6.90;;;3.47;;
13704;SDS011;6924;52.122;9.952;2023-05-02T09:28:11;10.83;;;4.33;;
13704;SDS011;6924;52.122;9.952;2023-05-02T09:30:37;16.67;;;4.57;;
13704;SDS011;6924;52.122;9.952;2023-05-02T09:33:04;6.47;;;2.97;;
13704;SDS011;6924;52.122;9.952;2023-05-02T09:35:30;8.23;;;3.10;;
13704;SDS011;6924;52.122;9.952;2023-05-02T09:37:57;9.30;;;3.33;;
13704;SDS011;6924;52.122;9.952;2023-05-02T09:40:25;7.20;;;3.10;;
13704;SDS011;6924;52.122;9.952;2023-05-02T09:42:54;7.33;;;3.07;;
13704;SDS011;6924;52.122;9.952;2023-05-02T09:45:21;10.40;;;3.47;;
13704;SDS011;6924;52.122;9.952;2023-05-02T09:47:49;4.40;;;3.17;;
13704;SDS011;6924;52.122;9.952;2023-05-02T09:50:31;6.83;;;3.13;;
13704;SDS011;6924;52.122;9.952;2023-05-02T09:53:05;6.60;;;2.57;;
13704;SDS011;6924;52.122;9.952;2023-05-02T09:55:33;9.93;;;2.60;;
13704;SDS011;6924;52.122;9.952;2023-05-02T09:58:00;7.67;;;3.10;;
13704;SDS011;6924;52.122;9.952;2023-05-02T10:00:39;8.10;;;2.77;;
13704;SDS011;6924;52.122;9.952;2023-05-02T10:03:07;3.83;;;2.50;;
13704;SDS011;6924;52.122;9.952;2023-05-02T10:05:35;5.13;;;2.77;;
13704;SDS011;6924;52.122;9.952;2023-05-02T10:08:02;8.60;;;3.63;;
13704;SDS011;6924;52.122;9.952;2023-05-02T10:10:30;15.33;;;3.17;;
13704;SDS011;6924;52.122;9.952;2023-05-02T10:13:00;9.60;;;3.10;;
13704;SDS011;6924;52.122;9.952;2023-05-02T10:15:28;6.53;;;3.57;;
13704;SDS011;6924;52.122;9.952;2023-05-02T10:17:57;13.63;;;3.70;;
13704;SDS011;6924;52.122;9.952;2023-05-02T10:20:24;8.43;;;2.97;;
13704;SDS011;6924;52.122;9.952;2023-05-02T10:22:58;11.33;;;3.87;;
13704;SDS011;6924;52.122;9.952;2023-05-02T10:25:25;7.47;;;3.87;;
13704;SDS011;6924;52.122;9.952;2023-05-02T10:27:52;5.47;;;3.83;;
13704;SDS011;6924;52.122;9.952;2023-05-02T10:30:22;10.63;;;4.27;;
13704;SDS011;6924;52.122;9.952;2023-05-02T10:32:49;7.30;;;3.77;;
13704;SDS011;6924;52.122;9.952;2023-05-02T10:35:17;6.97;;;3.43;;
13704;SDS011;6924;52.122;9.952;2023-05-02T10:37:44;6.73;;;3.87;;
13704;SDS011;6924;52.122;9.952;2023-05-02T10:40:12;8.07;;;3.13;;
13704;SDS011;6924;52.122;9.952;2023-05-02T10:42:41;10.43;;;4.43;;
13704;SDS011;6924;52.122;9.952;2023-05-02T10:45:11;4.23;;;3.60;;
13704;SDS011;6924;52.122;9.952;2023-05-02T10:47:39;7.97;;;4.17;;
13704;SDS011;6924;52.122;9.952;2023-05-02T10:50:06;6.20;;;3.23;;
13704;SDS011;6924;52.122;9.952;2023-05-02T10:52:33;17.10;;;5.63;;
13704;SDS011;6924;52.122;9.952;2023-05-02T10:55:14;8.50;;;4.20;;
13704;SDS011;6924;52.122;9.952;2023-05-02T11:00:47;6.30;;;3.30;;
13704;SDS011;6924;52.122;9.952;2023-05-02T11:03:15;11.50;;;3.40;;
13704;SDS011;6924;52.122;9.952;2023-05-02T11:06:20;12.17;;;4.00;;
13704;SDS011;6924;52.122;9.952;2023-05-02T11:08:47;5.07;;;2.90;;
13704;SDS011;6924;52.122;9.952;2023-05-02T11:14:06;4.47;;;2.93;;
13704;SDS011;6924;52.122;9.952;2023-05-02T11:22:50;4.47;;;3.23;;
13704;SDS011;6924;52.122;9.952;2023-05-02T11:25:30;8.83;;;3.60;;
13704;SDS011;6924;52.122;9.952;2023-05-02T11:27:59;4.27;;;3.13;;
13704;SDS011;6924;52.122;9.952;2023-05-02T11:30:42;5.63;;;3.00;;
13704;SDS011;6924;52.122;9.952;2023-05-02T11:33:17;4.90;;;3.17;;
13704;SDS011;6924;52.122;9.952;2023-05-02T11:35:44;5.40;;;3.03;;
13704;SDS011;6924;52.122;9.952;2023-05-02T11:38:15;3.73;;;2.50;;
13704;SDS011;6924;52.122;9.952;2023-05-02T11:43:25;5.53;;;3.40;;
13704;SDS011;6924;52.122;9.952;2023-05-02T11:45:53;7.30;;;2.83;;
13704;SDS011;6924;52.122;9.952;2023-05-02T11:48:21;8.20;;;2.60;;
13704;SDS011;6924;52.122;9.952;2023-05-02T11:50:52;5.90;;;2.50;;
13704;SDS011;6924;52.122;9.952;2023-05-02T11:53:21;2.57;;;1.90;;
13704;SDS011;6924;52.122;9.952;2023-05-02T11:55:50;2.97;;;1.97;;
13704;SDS011;6924;52.122;9.952;2023-05-02T11:58:18;5.40;;;3.13;;
13704;SDS011;6924;52.122;9.952;2023-05-02T12:00:45;5.43;;;2.80;;
13704;SDS011;6924;52.122;9.952;2023-05-02T12:03:22;8.43;;;2.70;;
13704;SDS011;6924;52.122;9.952;2023-05-02T12:05:53;3.50;;;2.07;;
13704;SDS011;6924;52.122;9.952;2023-05-02T12:08:21;4.03;;;2.37;;
13704;SDS011;6924;52.122;9.952;2023-05-02T12:10:50;5.73;;;2.20;;
13704;SDS011;6924;52.122;9.952;2023-05-02T12:13:17;9.97;;;3.13;;
13704;SDS011;6924;52.122;9.952;2023-05-02T12:15:45;6.93;;;2.63;;
13704;SDS011;6924;52.122;9.952;2023-05-02T12:18:13;5.13;;;2.37;;
13704;SDS011;6924;52.122;9.952;2023-05-02T12:20:40;4.90;;;2.97;;
13704;SDS011;6924;52.122;9.952;2023-05-02T12:23:07;3.13;;;1.90;;
13704;SDS011;6924;52.122;9.952;2023-05-02T12:25:40;4.43;;;2.50;;
13704;SDS011;6924;52.122;9.952;2023-05-02T12:28:07;5.93;;;3.43;;
13704;SDS011;6924;52.122;9.952;2023-05-02T12:30:36;5.10;;;3.30;;
13704;SDS011;6924;52.122;9.952;2023-05-02T12:33:04;7.07;;;3.30;;
13704;SDS011;6924;52.122;9.952;2023-05-02T12:35:31;5.87;;;2.83;;
13704;SDS011;6924;52.122;9.952;2023-05-02T12:38:11;3.50;;;2.27;;
13704;SDS011;6924;52.122;9.952;2023-05-02T12:40:46;4.43;;;2.20;;
13704;SDS011;6924;52.122;9.952;2023-05-02T12:43:14;5.93;;;1.90;;
13704;SDS011;6924;52.122;9.952;2023-05-02T12:45:41;4.30;;;2.10;;
13704;SDS011;6924;52.122;9.952;2023-05-02T12:48:17;3.83;;;2.10;;
13704;SDS011;6924;52.122;9.952;2023-05-02T12:50:45;5.13;;;2.20;;
13704;SDS011;6924;52.122;9.952;2023-05-02T12:53:12;5.07;;;2.83;;
13704;SDS011;6924;52.122;9.952;2023-05-02T12:55:38;10.20;;;2.30;;
13704;SDS011;6924;52.122;9.952;2023-05-02T12:58:07;3.50;;;2.40;;
13704;SDS011;6924;52.122;9.952;2023-05-02T13:00:35;7.93;;;3.47;;
13704;SDS011;6924;52.122;9.952;2023-05-02T13:03:02;4.10;;;2.40;;
13704;SDS011;6924;52.122;9.952;2023-05-02T13:05:29;4.47;;;2.80;;
13704;SDS011;6924;52.122;9.952;2023-05-02T13:07:56;4.20;;;2.50;;
13704;SDS011;6924;52.122;9.952;2023-05-02T13:10:23;4.80;;;2.20;;
13704;SDS011;6924;52.122;9.952;2023-05-02T13:12:50;6.80;;;1.97;;
13704;SDS011;6924;52.122;9.952;2023-05-02T13:15:18;10.37;;;2.57;;
13704;SDS011;6924;52.122;9.952;2023-05-02T13:17:45;3.80;;;2.10;;
13704;SDS011;6924;52.122;9.952;2023-05-02T13:20:11;3.90;;;2.43;;
13704;SDS011;6924;52.122;9.952;2023-05-02T13:22:38;3.13;;;2.03;;
13704;SDS011;6924;52.122;9.952;2023-05-02T13:25:05;5.53;;;2.33;;
13704;SDS011;6924;52.122;9.952;2023-05-02T13:27:32;5.80;;;2.03;;
13704;SDS011;6924;52.122;9.952;2023-05-02T13:29:59;5.03;;;2.10;;
13704;SDS011;6924;52.122;9.952;2023-05-02T13:32:27;2.70;;;2.30;;
13704;SDS011;6924;52.122;9.952;2023-05-02T13:34:54;4.83;;;2.43;;
13704;SDS011;6924;52.122;9.952;2023-05-02T13:37:20;5.90;;;2.77;;
13704;SDS011;6924;52.122;9.952;2023-05-02T13:39:47;6.03;;;2.37;;
13704;SDS011;6924;52.122;9.952;2023-05-02T13:42:13;7.23;;;2.67;;
13704;SDS011;6924;52.122;9.952;2023-05-02T13:44:40;4.43;;;2.50;;
13704;SDS011;6924;52.122;9.952;2023-05-02T13:47:07;6.60;;;2.83;;
13704;SDS011;6924;52.122;9.952;2023-05-02T13:49:34;11.87;;;3.07;;
13704;SDS011;6924;52.122;9.952;2023-05-02T13:52:01;5.20;;;2.67;;
13704;SDS011;6924;52.122;9.952;2023-05-02T13:54:28;4.03;;;2.10;;
13704;SDS011;6924;52.122;9.952;2023-05-02T13:56:54;4.33;;;2.23;;
13704;SDS011;6924;52.122;9.952;2023-05-02T13:59:21;9.27;;;3.13;;
13704;SDS011;6924;52.122;9.952;2023-05-02T14:01:47;6.93;;;3.33;;
13704;SDS011;6924;52.122;9.952;2023-05-02T14:04:14;3.40;;;2.23;;
13704;SDS011;6924;52.122;9.952;2023-05-02T14:06:42;3.67;;;2.27;;
13704;SDS011;6924;52.122;9.952;2023-05-02T14:09:08;6.93;;;2.63;;
13704;SDS011;6924;52.122;9.952;2023-05-02T14:11:35;5.43;;;2.13;;
13704;SDS011;6924;52.122;9.952;2023-05-02T14:14:01;4.13;;;2.40;;
13704;SDS011;6924;52.122;9.952;2023-05-02T14:16:28;4.43;;;2.80;;
13704;SDS011;6924;52.122;9.952;2023-05-02T14:18:55;2.40;;;1.90;;
13704;SDS011;6924;52.122;9.952;2023-05-02T14:21:21;6.60;;;2.87;;
13704;SDS011;6924;52.122;9.952;2023-05-02T14:23:49;3.10;;;1.80;;
13704;SDS011;6924;52.122;9.952;2023-05-02T14:26:15;3.67;;;2.00;;
13704;SDS011;6924;52.122;9.952;2023-05-02T14:28:44;8.73;;;2.50;;
13704;SDS011;6924;52.122;9.952;2023-05-02T14:31:10;5.33;;;1.87;;
13704;SDS011;6924;52.122;9.952;2023-05-02T14:33:36;2.10;;;1.90;;
13704;SDS011;6924;52.122;9.952;2023-05-02T14:36:03;3.60;;;2.33;;
13704;SDS011;6924;52.122;9.952;2023-05-02T14:38:29;2.30;;;1.83;;
13704;SDS011;6924;52.122;9.952;2023-05-02T14:40:57;4.43;;;2.20;;
13704;SDS011;6924;52.122;9.952;2023-05-02T14:43:24;5.10;;;2.83;;
13704;SDS011;6924;52.122;9.952;2023-05-02T14:45:51;4.37;;;2.17;;
13704;SDS011;6924;52.122;9.952;2023-05-02T14:48:17;3.90;;;2.43;;
13704;SDS011;6924;52.122;9.952;2023-05-02T14:50:44;1.90;;;1.40;;
13704;SDS011;6924;52.122;9.952;2023-05-02T14:53:10;3.50;;;1.90;;
13704;SDS011;6924;52.122;9.952;2023-05-02T14:55:37;1.90;;;1.50;;
13704;SDS011;6924;52.122;9.952;2023-05-02T14:58:05;2.83;;;1.70;;
13704;SDS011;6924;52.122;9.952;2023-05-02T15:00:32;1.63;;;1.30;;
13704;SDS011;6924;52.122;9.952;2023-05-02T15:03:01;3.43;;;1.73;;
13704;SDS011;6924;52.122;9.952;2023-05-02T15:05:28;1.27;;;1.17;;
13704;SDS011;6924;52.122;9.952;2023-05-02T15:07:55;3.80;;;1.40;;
13704;SDS011;6924;52.122;9.952;2023-05-02T15:10:21;1.63;;;1.37;;
13704;SDS011;6924;52.122;9.952;2023-05-02T15:12:48;2.60;;;1.33;;
13704;SDS011;6924;52.122;9.952;2023-05-02T15:15:16;2.40;;;1.67;;